createdAt,value
2017-10-22T00:00:29.232Z,0
2017-10-22T00:01:09.822Z,0
2017-10-22T00:01:50.399Z,0
2017-10-22T00:02:30.984Z,0
2017-10-22T00:03:11.552Z,0
2017-10-22T00:03:52.124Z,0
2017-10-22T00:04:32.714Z,0
2017-10-22T00:05:13.343Z,0
2017-10-22T00:05:53.918Z,0
2017-10-22T00:06:34.502Z,0
2017-10-22T00:07:15.092Z,0
2017-10-22T00:07:55.678Z,0
2017-10-22T00:08:36.281Z,0
2017-10-22T00:09:16.870Z,0
2017-10-22T00:09:57.491Z,0
2017-10-22T00:10:38.096Z,0
2017-10-22T00:11:18.671Z,0
2017-10-22T00:11:59.291Z,0
2017-10-22T00:12:39.869Z,0
2017-10-22T00:13:20.449Z,0
2017-10-22T00:14:01.041Z,0
2017-10-22T00:14:41.613Z,0
2017-10-22T00:15:22.209Z,0
2017-10-22T00:16:02.810Z,0
2017-10-22T00:16:43.407Z,0
2017-10-22T00:17:23.993Z,0
2017-10-22T00:18:04.552Z,0
2017-10-22T00:18:45.112Z,0
2017-10-22T00:19:25.701Z,0
2017-10-22T00:20:06.282Z,0
2017-10-22T00:20:46.920Z,0
2017-10-22T00:21:27.509Z,0
2017-10-22T00:22:08.133Z,0
2017-10-22T00:22:48.729Z,0
2017-10-22T00:23:29.289Z,0
2017-10-22T00:24:09.881Z,0
2017-10-22T00:24:50.470Z,0
2017-10-22T00:25:31.057Z,0
2017-10-22T00:26:11.667Z,0
2017-10-22T00:26:52.255Z,0
2017-10-22T00:27:32.834Z,0
2017-10-22T00:28:13.418Z,0
2017-10-22T00:28:54.005Z,0
2017-10-22T00:29:34.611Z,0
2017-10-22T00:30:15.200Z,0
2017-10-22T00:30:55.817Z,0
2017-10-22T00:31:36.401Z,0
2017-10-22T00:32:16.988Z,0
2017-10-22T00:32:57.551Z,0
2017-10-22T00:33:38.130Z,0
2017-10-22T00:34:18.699Z,0
2017-10-22T00:34:59.263Z,0
2017-10-22T00:35:39.839Z,0
2017-10-22T00:36:20.429Z,0
2017-10-22T00:37:01.001Z,0
2017-10-22T00:37:41.568Z,0
2017-10-22T00:38:28.731Z,0
2017-10-22T00:39:09.300Z,0
2017-10-22T00:39:49.982Z,0
2017-10-22T00:40:30.560Z,0
2017-10-22T00:41:11.130Z,0
2017-10-22T00:41:51.713Z,0
2017-10-22T00:42:32.281Z,0
2017-10-22T00:43:12.865Z,0
2017-10-22T00:43:53.468Z,0
2017-10-22T00:44:34.042Z,0
2017-10-22T00:45:14.641Z,0
2017-10-22T00:45:55.224Z,0
2017-10-22T00:46:35.838Z,0
2017-10-22T00:47:16.390Z,0
2017-10-22T00:47:56.971Z,0
2017-10-22T00:48:37.535Z,0
2017-10-22T00:49:18.112Z,0
2017-10-22T00:49:58.683Z,0
2017-10-22T00:50:39.269Z,0
2017-10-22T00:51:19.878Z,0
2017-10-22T00:52:00.457Z,0
2017-10-22T00:52:41.024Z,0
2017-10-22T00:53:21.589Z,0
2017-10-22T00:54:02.156Z,0
2017-10-22T00:54:42.776Z,0
2017-10-22T00:55:23.399Z,0
2017-10-22T00:56:03.984Z,0
2017-10-22T00:56:44.650Z,0
2017-10-22T00:57:25.321Z,0
2017-10-22T00:58:05.917Z,0
2017-10-22T00:58:46.514Z,0
2017-10-22T00:59:27.179Z,0
2017-10-22T01:00:07.787Z,0
2017-10-22T01:00:48.366Z,0
2017-10-22T01:01:28.942Z,0
2017-10-22T01:02:09.528Z,0
2017-10-22T01:02:50.081Z,0
2017-10-22T01:03:30.666Z,0
2017-10-22T01:04:11.266Z,0
2017-10-22T01:04:51.859Z,0
2017-10-22T01:05:32.423Z,0
2017-10-22T01:06:13.039Z,0
2017-10-22T01:06:53.700Z,0
2017-10-22T01:07:34.271Z,0
2017-10-22T01:08:14.890Z,0
2017-10-22T01:08:55.467Z,0
2017-10-22T01:09:36.105Z,0
2017-10-22T01:10:16.691Z,0
2017-10-22T01:10:57.264Z,0
2017-10-22T01:11:37.854Z,0
2017-10-22T01:12:18.427Z,0
2017-10-22T01:12:58.998Z,0
2017-10-22T01:13:39.640Z,0
2017-10-22T01:14:20.213Z,0
2017-10-22T01:15:00.821Z,0
2017-10-22T01:15:41.405Z,0
2017-10-22T01:16:22.017Z,0
2017-10-22T01:17:02.640Z,0
2017-10-22T01:17:43.229Z,0
2017-10-22T01:18:23.779Z,0
2017-10-22T01:19:04.357Z,0
2017-10-22T01:19:44.948Z,0
2017-10-22T01:20:25.566Z,0
2017-10-22T01:21:06.147Z,0
2017-10-22T01:21:46.746Z,0
2017-10-22T01:22:27.335Z,0
2017-10-22T01:23:07.934Z,0
2017-10-22T01:23:48.505Z,0
2017-10-22T01:24:29.084Z,0
2017-10-22T01:25:09.698Z,0
2017-10-22T01:25:50.279Z,0
2017-10-22T01:26:30.843Z,0
2017-10-22T01:27:11.420Z,0
2017-10-22T01:27:52.073Z,0
2017-10-22T01:28:32.649Z,0
2017-10-22T01:29:13.239Z,0
2017-10-22T01:29:53.852Z,0
2017-10-22T01:30:34.442Z,0
2017-10-22T01:31:15.054Z,0
2017-10-22T01:31:55.645Z,0
2017-10-22T01:32:36.215Z,0
2017-10-22T01:33:16.788Z,0
2017-10-22T01:33:57.391Z,0
2017-10-22T01:34:37.932Z,0
2017-10-22T01:35:18.526Z,0
2017-10-22T01:35:59.123Z,0
2017-10-22T01:36:39.696Z,0
2017-10-22T01:37:20.323Z,0
2017-10-22T01:38:00.908Z,0
2017-10-22T01:38:41.516Z,0
2017-10-22T01:39:22.078Z,0
2017-10-22T01:40:02.644Z,0
2017-10-22T01:40:43.236Z,0
2017-10-22T01:41:23.829Z,0
2017-10-22T01:42:04.409Z,0
2017-10-22T01:42:44.992Z,0
2017-10-22T01:43:25.628Z,0
2017-10-22T01:44:06.169Z,0
2017-10-22T01:44:46.747Z,0
2017-10-22T01:45:27.317Z,0
2017-10-22T01:46:07.909Z,0
2017-10-22T01:46:48.506Z,0
2017-10-22T01:47:29.121Z,0
2017-10-22T01:48:09.682Z,0
2017-10-22T01:48:50.292Z,0
2017-10-22T01:49:30.886Z,0
2017-10-22T01:50:11.459Z,0
2017-10-22T01:50:52.048Z,0
2017-10-22T01:51:32.650Z,0
2017-10-22T01:52:13.283Z,0
2017-10-22T01:52:53.932Z,0
2017-10-22T01:53:34.514Z,0
2017-10-22T01:54:15.090Z,0
2017-10-22T01:54:55.678Z,0
2017-10-22T01:55:36.263Z,0
2017-10-22T01:56:16.872Z,0
2017-10-22T01:56:57.442Z,0
2017-10-22T01:57:38.033Z,0
2017-10-22T01:58:18.627Z,0
2017-10-22T01:58:59.206Z,0
2017-10-22T01:59:39.762Z,0
2017-10-22T02:00:20.359Z,0
2017-10-22T02:01:00.932Z,0
2017-10-22T02:01:41.526Z,0
2017-10-22T02:02:22.164Z,0
2017-10-22T02:03:02.746Z,0
2017-10-22T02:03:43.332Z,0
2017-10-22T02:04:23.929Z,0
2017-10-22T02:05:04.538Z,0
2017-10-22T02:05:45.139Z,0
2017-10-22T02:06:25.718Z,0
2017-10-22T02:07:06.293Z,0
2017-10-22T02:07:46.952Z,0
2017-10-22T02:08:27.535Z,0
2017-10-22T02:09:08.106Z,0
2017-10-22T02:09:48.706Z,0
2017-10-22T02:10:29.330Z,0
2017-10-22T02:11:09.958Z,0
2017-10-22T02:11:50.540Z,0
2017-10-22T02:12:31.113Z,0
2017-10-22T02:13:11.699Z,0
2017-10-22T02:13:52.330Z,0
2017-10-22T02:14:32.903Z,0
2017-10-22T02:15:13.495Z,0
2017-10-22T02:15:54.111Z,0
2017-10-22T02:16:34.749Z,0
2017-10-22T02:17:15.328Z,0
2017-10-22T02:17:55.924Z,0
2017-10-22T02:18:36.515Z,0
2017-10-22T02:19:17.139Z,0
2017-10-22T02:19:57.744Z,0
2017-10-22T02:20:38.336Z,0
2017-10-22T02:21:18.947Z,0
2017-10-22T02:21:59.539Z,0
2017-10-22T02:22:40.205Z,0
2017-10-22T02:23:20.792Z,0
2017-10-22T02:24:01.396Z,0
2017-10-22T02:24:42.009Z,0
2017-10-22T02:25:22.602Z,0
2017-10-22T02:26:03.201Z,0
2017-10-22T02:26:43.842Z,0
2017-10-22T02:27:24.474Z,0
2017-10-22T02:28:05.102Z,0
2017-10-22T02:28:45.698Z,0
2017-10-22T02:29:26.273Z,0
2017-10-22T02:30:06.891Z,0
2017-10-22T02:30:47.540Z,0
2017-10-22T02:31:28.117Z,0
2017-10-22T02:32:08.732Z,0
2017-10-22T02:32:49.319Z,0
2017-10-22T02:33:29.920Z,0
2017-10-22T02:34:10.548Z,0
2017-10-22T02:34:51.155Z,0
2017-10-22T02:35:31.786Z,0
2017-10-22T02:36:12.380Z,0
2017-10-22T02:36:53.010Z,0
2017-10-22T02:37:33.658Z,0
2017-10-22T02:38:14.231Z,0
2017-10-22T02:38:54.832Z,0
2017-10-22T02:39:35.436Z,0
2017-10-22T02:40:16.099Z,0
2017-10-22T02:40:56.703Z,0
2017-10-22T02:41:37.388Z,0
2017-10-22T02:42:17.944Z,0
2017-10-22T02:42:58.556Z,0
2017-10-22T02:43:39.151Z,0
2017-10-22T02:44:19.778Z,0
2017-10-22T02:45:00.395Z,0
2017-10-22T02:45:40.994Z,0
2017-10-22T02:46:21.600Z,0
2017-10-22T02:47:02.198Z,0
2017-10-22T02:47:42.794Z,0
2017-10-22T02:48:23.402Z,0
2017-10-22T02:49:04.027Z,0
2017-10-22T02:49:44.623Z,0
2017-10-22T02:50:25.228Z,0
2017-10-22T02:51:05.836Z,0
2017-10-22T02:51:46.456Z,0
2017-10-22T02:52:27.050Z,0
2017-10-22T02:53:07.640Z,0
2017-10-22T02:53:48.252Z,0
2017-10-22T02:54:28.869Z,0
2017-10-22T02:55:09.458Z,0
2017-10-22T02:55:50.079Z,0
2017-10-22T02:56:30.697Z,0
2017-10-22T02:57:11.320Z,0
2017-10-22T02:57:51.927Z,0
2017-10-22T02:58:32.520Z,0
2017-10-22T02:59:13.120Z,0
2017-10-22T02:59:53.725Z,0
2017-10-22T03:00:34.335Z,0
2017-10-22T03:01:14.964Z,0
2017-10-22T03:01:55.574Z,0
2017-10-22T03:02:36.172Z,0
2017-10-22T03:03:16.785Z,0
2017-10-22T03:03:57.393Z,0
2017-10-22T03:04:37.981Z,0
2017-10-22T03:05:18.586Z,0
2017-10-22T03:05:59.209Z,0
2017-10-22T03:06:39.822Z,0
2017-10-22T03:07:20.442Z,0
2017-10-22T03:08:01.054Z,0
2017-10-22T03:08:41.669Z,0
2017-10-22T03:09:22.244Z,0
2017-10-22T03:10:02.863Z,0
2017-10-22T03:10:43.503Z,0
2017-10-22T03:11:24.143Z,0
2017-10-22T03:12:04.722Z,0
2017-10-22T03:12:45.313Z,0
2017-10-22T03:13:25.935Z,0
2017-10-22T03:14:06.564Z,0
2017-10-22T03:14:47.151Z,0
2017-10-22T03:15:27.715Z,0
2017-10-22T03:16:08.307Z,0
2017-10-22T03:16:48.906Z,0
2017-10-22T03:17:29.483Z,0
2017-10-22T03:18:10.098Z,0
2017-10-22T03:18:50.718Z,0
2017-10-22T03:19:31.353Z,0
2017-10-22T03:20:11.959Z,0
2017-10-22T03:20:52.581Z,0
2017-10-22T03:21:33.162Z,0
2017-10-22T03:22:13.767Z,0
2017-10-22T03:22:54.394Z,0
2017-10-22T03:23:35.023Z,0
2017-10-22T03:24:15.648Z,0
2017-10-22T03:24:56.236Z,0
2017-10-22T03:25:36.850Z,0
2017-10-22T03:26:17.414Z,0
2017-10-22T03:26:57.975Z,0
2017-10-22T03:27:38.547Z,0
2017-10-22T03:28:19.148Z,0
2017-10-22T03:28:59.737Z,0
2017-10-22T03:29:40.306Z,0
2017-10-22T03:30:20.873Z,0
2017-10-22T03:31:01.448Z,0
2017-10-22T03:31:42.100Z,0
2017-10-22T03:32:22.698Z,0
2017-10-22T03:33:03.280Z,0
2017-10-22T03:33:43.879Z,0
2017-10-22T03:34:24.448Z,0
2017-10-22T03:35:05.037Z,0
2017-10-22T03:35:45.660Z,0
2017-10-22T03:36:26.223Z,0
2017-10-22T03:37:06.790Z,0
2017-10-22T03:37:47.385Z,0
2017-10-22T03:38:27.971Z,0
2017-10-22T03:39:08.564Z,0
2017-10-22T03:39:49.156Z,0
2017-10-22T03:40:29.817Z,0
2017-10-22T03:41:10.373Z,0
2017-10-22T03:41:50.971Z,0
2017-10-22T03:42:31.548Z,0
2017-10-22T03:43:12.144Z,0
2017-10-22T03:43:52.727Z,0
2017-10-22T03:44:33.310Z,0
2017-10-22T03:45:13.898Z,0
2017-10-22T03:45:54.486Z,0
2017-10-22T03:46:35.081Z,0
2017-10-22T03:47:15.647Z,0
2017-10-22T03:47:56.233Z,0
2017-10-22T03:48:36.831Z,0
2017-10-22T03:49:17.463Z,0
2017-10-22T03:49:58.039Z,0
2017-10-22T03:50:38.720Z,0
2017-10-22T03:51:19.324Z,0
2017-10-22T03:51:59.894Z,0
2017-10-22T03:52:40.491Z,0
2017-10-22T03:53:21.080Z,0
2017-10-22T03:54:01.649Z,0
2017-10-22T03:54:42.244Z,0
2017-10-22T03:55:22.850Z,0
2017-10-22T03:56:03.442Z,0
2017-10-22T03:56:44.135Z,0
2017-10-22T03:57:24.715Z,0
2017-10-22T03:58:05.318Z,0
2017-10-22T03:58:45.914Z,0
2017-10-22T03:59:26.488Z,0
2017-10-22T04:00:07.085Z,0
2017-10-22T04:00:47.689Z,0
2017-10-22T04:01:28.281Z,0
2017-10-22T04:02:08.866Z,0
2017-10-22T04:02:49.462Z,0
2017-10-22T04:03:30.039Z,0
2017-10-22T04:04:10.652Z,0
2017-10-22T04:04:51.243Z,0
2017-10-22T04:05:32.006Z,0
2017-10-22T04:06:12.591Z,0
2017-10-22T04:06:53.204Z,0
2017-10-22T04:07:33.807Z,0
2017-10-22T04:08:14.406Z,0
2017-10-22T04:08:55.019Z,0
2017-10-22T04:09:35.609Z,0
2017-10-22T04:10:16.212Z,0
2017-10-22T04:10:56.809Z,0
2017-10-22T04:11:37.409Z,0
2017-10-22T04:12:18.025Z,0
2017-10-22T04:12:58.640Z,0
2017-10-22T04:13:39.258Z,0
2017-10-22T04:14:19.846Z,0
2017-10-22T04:15:00.439Z,0
2017-10-22T04:15:41.013Z,0
2017-10-22T04:16:21.665Z,0
2017-10-22T04:17:02.261Z,0
2017-10-22T04:17:42.837Z,0
2017-10-22T04:18:23.442Z,0
2017-10-22T04:19:04.049Z,0
2017-10-22T04:19:44.688Z,0
2017-10-22T04:20:25.306Z,0
2017-10-22T04:21:05.897Z,0
2017-10-22T04:21:46.482Z,0
2017-10-22T04:22:27.082Z,0
2017-10-22T04:23:07.678Z,0
2017-10-22T04:23:48.245Z,0
2017-10-22T04:24:28.850Z,0
2017-10-22T04:25:09.439Z,0
2017-10-22T04:25:50.068Z,0
2017-10-22T04:26:30.684Z,0
2017-10-22T04:27:11.307Z,0
2017-10-22T04:27:51.926Z,0
2017-10-22T04:28:32.485Z,0
2017-10-22T04:29:13.062Z,0
2017-10-22T04:29:53.676Z,0
2017-10-22T04:30:34.280Z,0
2017-10-22T04:31:14.879Z,0
2017-10-22T04:31:55.480Z,0
2017-10-22T04:32:36.069Z,0
2017-10-22T04:33:16.660Z,0
2017-10-22T04:33:57.234Z,0
2017-10-22T04:34:37.927Z,0
2017-10-22T04:35:18.523Z,0
2017-10-22T04:35:59.374Z,0
2017-10-22T04:36:40.010Z,0
2017-10-22T04:37:20.590Z,0
2017-10-22T04:38:01.212Z,0
2017-10-22T04:38:41.790Z,0
2017-10-22T04:39:22.381Z,0
2017-10-22T04:40:03.006Z,0
2017-10-22T04:40:43.617Z,0
2017-10-22T04:41:24.214Z,0
2017-10-22T04:42:04.802Z,0
2017-10-22T04:42:45.411Z,0
2017-10-22T04:43:26.024Z,0
2017-10-22T04:44:06.608Z,0
2017-10-22T04:44:47.260Z,0
2017-10-22T04:45:27.912Z,0
2017-10-22T04:46:08.542Z,0
2017-10-22T04:46:49.150Z,0
2017-10-22T04:47:29.724Z,0
2017-10-22T04:48:10.398Z,0
2017-10-22T04:48:50.973Z,0
2017-10-22T04:49:31.594Z,0
2017-10-22T04:50:12.217Z,0
2017-10-22T04:50:52.785Z,0
2017-10-22T04:51:33.395Z,0
2017-10-22T04:52:14.016Z,0
2017-10-22T04:52:54.603Z,0
2017-10-22T04:53:35.219Z,0
2017-10-22T04:54:15.800Z,0
2017-10-22T04:54:56.424Z,0
2017-10-22T04:55:37.074Z,0
2017-10-22T04:56:17.662Z,0
2017-10-22T04:56:58.260Z,0
2017-10-22T04:57:38.852Z,0
2017-10-22T04:58:19.498Z,0
2017-10-22T04:59:00.054Z,0
2017-10-22T04:59:40.663Z,0
2017-10-22T05:00:21.271Z,0
2017-10-22T05:01:01.893Z,0
2017-10-22T05:01:42.594Z,0
2017-10-22T05:02:23.188Z,0
2017-10-22T05:03:03.802Z,0
2017-10-22T05:03:44.411Z,0
2017-10-22T05:04:24.993Z,0
2017-10-22T05:05:05.579Z,0
2017-10-22T05:05:46.161Z,0
2017-10-22T05:06:26.805Z,0
2017-10-22T05:07:07.386Z,0
2017-10-22T05:07:47.986Z,0
2017-10-22T05:08:28.584Z,0
2017-10-22T05:09:09.159Z,0
2017-10-22T05:09:49.791Z,0
2017-10-22T05:10:30.360Z,0
2017-10-22T05:11:10.955Z,0
2017-10-22T05:11:51.552Z,0
2017-10-22T05:12:32.142Z,0
2017-10-22T05:13:12.726Z,0
2017-10-22T05:13:53.297Z,0
2017-10-22T05:14:33.867Z,0
2017-10-22T05:15:14.695Z,0
2017-10-22T05:15:55.934Z,0
2017-10-22T05:16:36.521Z,0
2017-10-22T05:17:17.122Z,0
2017-10-22T05:17:57.853Z,0
2017-10-22T05:18:38.757Z,0
2017-10-22T05:19:19.337Z,0
2017-10-22T05:20:00.046Z,0
2017-10-22T05:20:40.670Z,0
2017-10-22T05:21:21.257Z,0
2017-10-22T05:22:01.863Z,0
2017-10-22T05:22:42.436Z,0
2017-10-22T05:23:23.091Z,0
2017-10-22T05:24:03.664Z,0
2017-10-22T05:24:44.368Z,4
2017-10-22T05:25:24.983Z,4
2017-10-22T05:26:05.575Z,0
2017-10-22T05:26:46.184Z,0
2017-10-22T05:27:26.785Z,0
2017-10-22T05:28:07.400Z,4
2017-10-22T05:28:47.967Z,4
2017-10-22T05:29:28.539Z,4
2017-10-22T05:30:09.128Z,4
2017-10-22T05:30:49.722Z,4
2017-10-22T05:31:30.301Z,4
2017-10-22T05:32:10.873Z,4
2017-10-22T05:32:51.470Z,4
2017-10-22T05:33:32.066Z,4
2017-10-22T05:34:12.674Z,4
2017-10-22T05:34:53.271Z,4
2017-10-22T05:35:33.877Z,4
2017-10-22T05:36:14.459Z,4
2017-10-22T05:36:55.036Z,4
2017-10-22T05:37:35.640Z,4
2017-10-22T05:38:16.220Z,4
2017-10-22T05:38:56.839Z,8
2017-10-22T05:39:37.419Z,4
2017-10-22T05:40:18.024Z,8
2017-10-22T05:40:58.639Z,4
2017-10-22T05:41:39.248Z,8
2017-10-22T05:42:19.847Z,8
2017-10-22T05:43:00.446Z,12
2017-10-22T05:43:41.090Z,12
2017-10-22T05:44:21.651Z,12
2017-10-22T05:45:02.226Z,12
2017-10-22T05:45:42.804Z,16
2017-10-22T05:46:23.424Z,12
2017-10-22T05:47:04.016Z,16
2017-10-22T05:47:44.599Z,16
2017-10-22T05:48:25.176Z,20
2017-10-22T05:49:05.743Z,20
2017-10-22T05:49:46.317Z,20
2017-10-22T05:50:26.909Z,20
2017-10-22T05:51:07.491Z,24
2017-10-22T05:51:48.172Z,24
2017-10-22T05:52:28.972Z,28
2017-10-22T05:53:09.673Z,28
2017-10-22T05:53:50.405Z,32
2017-10-22T05:54:31.086Z,28
2017-10-22T05:55:11.962Z,28
2017-10-22T05:55:52.652Z,36
2017-10-22T05:56:33.569Z,32
2017-10-22T05:57:14.162Z,36
2017-10-22T05:57:54.813Z,40
2017-10-22T05:58:35.418Z,44
2017-10-22T05:59:16.061Z,44
2017-10-22T05:59:56.703Z,48
2017-10-22T06:00:37.332Z,48
2017-10-22T06:01:17.894Z,48
2017-10-22T06:01:58.496Z,48
2017-10-22T06:02:39.151Z,56
2017-10-22T06:03:19.785Z,56
2017-10-22T06:04:00.447Z,60
2017-10-22T06:04:41.047Z,64
2017-10-22T06:05:21.685Z,68
2017-10-22T06:06:02.298Z,72
2017-10-22T06:06:42.952Z,76
2017-10-22T06:07:23.586Z,80
2017-10-22T06:08:04.230Z,88
2017-10-22T06:08:44.836Z,92
2017-10-22T06:09:25.438Z,100
2017-10-22T06:10:06.029Z,108
2017-10-22T06:10:46.650Z,116
2017-10-22T06:11:27.251Z,128
2017-10-22T06:12:07.902Z,140
2017-10-22T06:12:48.456Z,148
2017-10-22T06:13:29.043Z,160
2017-10-22T06:14:09.628Z,168
2017-10-22T06:14:50.228Z,176
2017-10-22T06:15:30.793Z,180
2017-10-22T06:16:11.403Z,188
2017-10-22T06:16:51.973Z,188
2017-10-22T06:17:32.545Z,188
2017-10-22T06:18:13.117Z,192
2017-10-22T06:18:53.731Z,196
2017-10-22T06:19:34.359Z,200
2017-10-22T06:20:14.899Z,208
2017-10-22T06:20:55.601Z,216
2017-10-22T06:21:36.210Z,220
2017-10-22T06:22:16.886Z,228
2017-10-22T06:22:57.496Z,240
2017-10-22T06:23:38.092Z,248
2017-10-22T06:24:18.731Z,256
2017-10-22T06:24:59.361Z,264
2017-10-22T06:25:39.968Z,272
2017-10-22T06:26:20.607Z,284
2017-10-22T06:27:01.457Z,296
2017-10-22T06:27:41.977Z,316
2017-10-22T06:28:22.609Z,332
2017-10-22T06:29:03.238Z,360
2017-10-22T06:29:43.878Z,392
2017-10-22T06:30:24.486Z,424
2017-10-22T06:31:05.179Z,448
2017-10-22T06:31:45.805Z,464
2017-10-22T06:32:26.404Z,464
2017-10-22T06:33:06.985Z,460
2017-10-22T06:33:47.603Z,456
2017-10-22T06:34:28.248Z,448
2017-10-22T06:35:08.866Z,452
2017-10-22T06:35:49.478Z,464
2017-10-22T06:36:30.075Z,480
2017-10-22T06:37:10.718Z,492
2017-10-22T06:37:51.282Z,516
2017-10-22T06:38:31.922Z,532
2017-10-22T06:39:12.562Z,544
2017-10-22T06:39:53.151Z,572
2017-10-22T06:40:33.783Z,608
2017-10-22T06:41:14.406Z,648
2017-10-22T06:41:55.065Z,680
2017-10-22T06:42:35.687Z,700
2017-10-22T06:43:16.314Z,696
2017-10-22T06:43:56.896Z,676
2017-10-22T06:44:37.503Z,632
2017-10-22T06:45:18.095Z,584
2017-10-22T06:45:58.717Z,540
2017-10-22T06:46:39.318Z,520
2017-10-22T06:47:19.908Z,512
2017-10-22T06:48:00.499Z,520
2017-10-22T06:48:41.169Z,520
2017-10-22T06:49:21.772Z,508
2017-10-22T06:50:02.415Z,488
2017-10-22T06:50:43.103Z,468
2017-10-22T06:51:23.813Z,428
2017-10-22T06:52:04.420Z,388
2017-10-22T06:52:45.121Z,348
2017-10-22T06:53:25.829Z,324
2017-10-22T06:54:06.473Z,320
2017-10-22T06:54:47.117Z,324
2017-10-22T06:55:27.748Z,344
2017-10-22T06:56:08.473Z,384
2017-10-22T06:56:49.099Z,444
2017-10-22T06:57:29.644Z,536
2017-10-22T06:58:10.265Z,660
2017-10-22T06:58:50.918Z,796
2017-10-22T06:59:31.493Z,912
2017-10-22T07:00:12.096Z,1048
2017-10-22T07:00:52.735Z,1172
2017-10-22T07:01:33.331Z,1320
2017-10-22T07:02:13.924Z,1496
2017-10-22T07:02:54.557Z,1740
2017-10-22T07:03:35.143Z,1952
2017-10-22T07:04:15.775Z,2068
2017-10-22T07:04:56.416Z,2200
2017-10-22T07:05:37.052Z,1968
2017-10-22T07:06:17.686Z,1572
2017-10-22T07:06:58.337Z,1232
2017-10-22T07:07:38.968Z,1004
2017-10-22T07:08:19.616Z,908
2017-10-22T07:09:00.203Z,936
2017-10-22T07:09:40.783Z,1016
2017-10-22T07:10:21.386Z,1080
2017-10-22T07:11:01.991Z,1108
2017-10-22T07:11:42.619Z,1140
2017-10-22T07:12:23.267Z,1180
2017-10-22T07:13:03.944Z,1268
2017-10-22T07:13:44.842Z,1492
2017-10-22T07:14:25.852Z,1940
2017-10-22T07:15:06.395Z,2520
2017-10-22T07:15:47.261Z,3160
2017-10-22T07:16:27.907Z,3900
2017-10-22T07:17:08.522Z,4224
2017-10-22T07:17:49.112Z,4452
2017-10-22T07:18:29.745Z,4804
2017-10-22T07:19:10.341Z,5132
2017-10-22T07:19:51.015Z,4928
2017-10-22T07:20:31.670Z,4892
2017-10-22T07:21:12.328Z,5204
2017-10-22T07:21:52.980Z,5664
2017-10-22T07:22:33.576Z,6216
2017-10-22T07:23:14.158Z,6192
2017-10-22T07:23:54.755Z,5684
2017-10-22T07:24:35.347Z,5448
2017-10-22T07:25:15.981Z,4976
2017-10-22T07:25:56.590Z,4956
2017-10-22T07:26:37.188Z,4880
2017-10-22T07:27:17.802Z,4840
2017-10-22T07:27:58.403Z,4848
2017-10-22T07:28:39.005Z,4820
2017-10-22T07:29:19.946Z,4836
2017-10-22T07:30:00.590Z,4888
2017-10-22T07:30:41.206Z,4980
2017-10-22T07:31:21.802Z,5076
2017-10-22T07:32:02.400Z,5164
2017-10-22T07:32:43.018Z,5168
2017-10-22T07:33:23.648Z,5180
2017-10-22T07:34:04.310Z,5240
2017-10-22T07:34:44.883Z,5276
2017-10-22T07:35:25.505Z,5340
2017-10-22T07:36:06.131Z,5400
2017-10-22T07:36:46.721Z,5480
2017-10-22T07:37:27.347Z,5496
2017-10-22T07:38:07.947Z,5552
2017-10-22T07:38:48.584Z,5648
2017-10-22T07:39:29.214Z,5756
2017-10-22T07:40:09.794Z,5912
2017-10-22T07:40:50.536Z,6048
2017-10-22T07:41:31.150Z,6204
2017-10-22T07:42:11.794Z,6392
2017-10-22T07:42:52.396Z,6660
2017-10-22T07:43:33.030Z,7120
2017-10-22T07:44:13.703Z,7916
2017-10-22T07:44:54.339Z,8828
2017-10-22T07:45:34.955Z,11760
2017-10-22T07:46:15.562Z,26720
2017-10-22T07:46:56.173Z,24320
2017-10-22T07:47:36.827Z,11932
2017-10-22T07:48:17.437Z,12300
2017-10-22T07:48:58.024Z,13488
2017-10-22T07:49:38.630Z,14288
2017-10-22T07:50:19.259Z,34784
2017-10-22T07:50:59.880Z,20256
2017-10-22T07:51:40.569Z,57024
2017-10-22T07:52:21.201Z,45984
2017-10-22T07:53:01.798Z,22208
2017-10-22T07:53:42.399Z,5692
2017-10-22T07:54:23.032Z,8596
2017-10-22T07:55:03.692Z,20960
2017-10-22T07:55:44.297Z,10524
2017-10-22T07:56:24.942Z,6868
2017-10-22T07:57:05.549Z,6088
2017-10-22T07:57:46.151Z,3444
2017-10-22T07:58:26.755Z,3536
2017-10-22T07:59:07.387Z,3240
2017-10-22T07:59:48.012Z,2780
2017-10-22T08:00:28.646Z,2648
2017-10-22T08:01:09.263Z,2624
2017-10-22T08:01:49.891Z,2612
2017-10-22T08:02:30.488Z,2776
2017-10-22T08:03:11.144Z,2952
2017-10-22T08:03:51.772Z,3128
2017-10-22T08:04:32.421Z,3352
2017-10-22T08:05:13.083Z,3384
2017-10-22T08:05:53.739Z,3416
2017-10-22T08:06:34.449Z,3428
2017-10-22T08:07:15.099Z,3468
2017-10-22T08:07:55.779Z,3536
2017-10-22T08:08:36.489Z,3568
2017-10-22T08:09:17.114Z,3492
2017-10-22T08:09:57.712Z,3392
2017-10-22T08:10:38.338Z,3292
2017-10-22T08:11:19.062Z,3148
2017-10-22T08:11:59.740Z,3008
2017-10-22T08:12:40.395Z,2896
2017-10-22T08:13:21.086Z,2796
2017-10-22T08:14:01.748Z,2716
2017-10-22T08:14:42.342Z,2640
2017-10-22T08:15:22.953Z,2572
2017-10-22T08:16:03.566Z,2500
2017-10-22T08:16:44.170Z,2440
2017-10-22T08:17:24.757Z,2368
2017-10-22T08:18:05.392Z,2316
2017-10-22T08:18:46.003Z,2256
2017-10-22T08:19:26.630Z,2164
2017-10-22T08:20:07.283Z,2080
2017-10-22T08:20:47.907Z,2012
2017-10-22T08:21:28.597Z,1960
2017-10-22T08:22:09.194Z,1960
2017-10-22T08:22:49.801Z,1940
2017-10-22T08:23:30.405Z,1948
2017-10-22T08:24:11.030Z,1984
2017-10-22T08:24:51.616Z,2032
2017-10-22T08:25:32.183Z,2092
2017-10-22T08:26:12.806Z,2140
2017-10-22T08:26:53.439Z,2200
2017-10-22T08:27:34.028Z,2252
2017-10-22T08:28:14.593Z,2284
2017-10-22T08:28:55.175Z,2292
2017-10-22T08:29:35.745Z,2300
2017-10-22T08:30:16.401Z,2308
2017-10-22T08:30:57.034Z,2356
2017-10-22T08:31:37.641Z,2452
2017-10-22T08:32:18.217Z,2632
2017-10-22T08:32:58.810Z,3044
2017-10-22T08:33:39.421Z,16672
2017-10-22T08:34:20.029Z,20736
2017-10-22T08:35:00.598Z,16544
2017-10-22T08:35:41.194Z,9788
2017-10-22T08:36:21.811Z,8420
2017-10-22T08:37:02.377Z,11724
2017-10-22T08:37:42.956Z,9560
2017-10-22T08:38:23.643Z,8152
2017-10-22T08:39:04.293Z,6492
2017-10-22T08:39:44.931Z,13360
2017-10-22T08:40:25.593Z,10072
2017-10-22T08:41:06.219Z,8656
2017-10-22T08:41:46.873Z,10152
2017-10-22T08:42:27.472Z,10696
2017-10-22T08:43:08.096Z,18048
2017-10-22T08:43:48.764Z,7936
2017-10-22T08:44:29.440Z,9508
2017-10-22T08:45:10.030Z,9456
2017-10-22T08:45:50.635Z,5512
2017-10-22T08:46:31.243Z,5096
2017-10-22T08:47:11.833Z,5300
2017-10-22T08:47:52.496Z,6116
2017-10-22T08:48:33.150Z,3804
2017-10-22T08:49:13.833Z,3692
2017-10-22T08:49:54.436Z,4216
2017-10-22T08:50:35.096Z,4612
2017-10-22T08:51:15.685Z,4644
2017-10-22T08:51:56.283Z,4764
2017-10-22T08:52:37.025Z,4212
2017-10-22T08:53:17.656Z,3808
2017-10-22T08:53:58.283Z,5012
2017-10-22T08:54:38.914Z,5236
2017-10-22T08:55:19.523Z,4480
2017-10-22T08:56:00.156Z,3836
2017-10-22T08:56:40.810Z,3880
2017-10-22T08:57:21.531Z,3520
2017-10-22T08:58:02.082Z,4152
2017-10-22T08:58:42.743Z,4336
2017-10-22T08:59:23.391Z,4992
2017-10-22T09:00:04.033Z,5132
2017-10-22T09:00:44.680Z,5176
2017-10-22T09:01:25.233Z,4756
2017-10-22T09:02:05.925Z,4900
2017-10-22T09:02:46.504Z,4736
2017-10-22T09:03:27.208Z,4864
2017-10-22T09:04:07.855Z,5328
2017-10-22T09:04:48.600Z,5792
2017-10-22T09:05:29.203Z,5220
2017-10-22T09:06:09.786Z,5092
2017-10-22T09:06:50.473Z,5340
2017-10-22T09:07:31.072Z,4944
2017-10-22T09:08:11.760Z,4832
2017-10-22T09:08:52.549Z,4840
2017-10-22T09:09:33.167Z,4720
2017-10-22T09:10:13.810Z,4408
2017-10-22T09:10:54.383Z,4208
2017-10-22T09:11:35.092Z,4148
2017-10-22T09:12:15.740Z,3964
2017-10-22T09:12:56.346Z,3824
2017-10-22T09:13:36.919Z,4116
2017-10-22T09:14:17.558Z,3624
2017-10-22T09:14:58.158Z,4092
2017-10-22T09:15:38.786Z,4644
2017-10-22T09:16:19.413Z,4280
2017-10-22T09:17:00.017Z,5536
2017-10-22T09:17:40.614Z,5924
2017-10-22T09:18:21.257Z,6468
2017-10-22T09:19:01.830Z,6844
2017-10-22T09:19:42.619Z,6928
2017-10-22T09:20:23.037Z,6880
2017-10-22T09:21:03.633Z,6684
2017-10-22T09:21:44.203Z,6364
2017-10-22T09:22:24.798Z,6008
2017-10-22T09:23:05.415Z,4620
2017-10-22T09:23:46.039Z,4032
2017-10-22T09:24:26.649Z,4420
2017-10-22T09:25:07.253Z,3352
2017-10-22T09:25:47.874Z,3384
2017-10-22T09:26:28.577Z,4040
2017-10-22T09:27:09.180Z,4328
2017-10-22T09:27:49.801Z,3988
2017-10-22T09:28:30.438Z,3612
2017-10-22T09:29:11.056Z,4444
2017-10-22T09:29:51.661Z,4604
2017-10-22T09:30:32.241Z,5652
2017-10-22T09:31:12.880Z,5900
2017-10-22T09:31:53.635Z,6020
2017-10-22T09:32:34.267Z,6076
2017-10-22T09:33:14.979Z,6052
2017-10-22T09:33:55.821Z,5880
2017-10-22T09:34:36.417Z,5616
2017-10-22T09:35:17.005Z,5088
2017-10-22T09:35:57.632Z,5320
2017-10-22T09:36:38.261Z,5156
2017-10-22T09:37:18.845Z,4844
2017-10-22T09:37:59.463Z,4600